createdAt,value
2017-12-08T00:02:17.086Z,7.43
2017-12-08T00:04:45.227Z,6.37
2017-12-08T00:07:14.245Z,5.73
2017-12-08T00:09:43.129Z,6.67
2017-12-08T00:12:12.411Z,6.30
2017-12-08T00:14:40.931Z,7.27
2017-12-08T00:17:09.783Z,7.53
2017-12-08T00:19:37.905Z,7.83
2017-12-08T00:22:06.045Z,7.53
2017-12-08T00:24:34.927Z,9.03
2017-12-08T00:27:03.074Z,7.57
2017-12-08T00:29:31.189Z,7.73
2017-12-08T00:32:00.094Z,5.30
2017-12-08T00:34:28.223Z,4.50
2017-12-08T00:36:56.358Z,5.17
2017-12-08T00:39:24.470Z,5.37
2017-12-08T00:41:53.413Z,5.80
2017-12-08T00:44:21.534Z,3.60
2017-12-08T00:46:49.669Z,4.93
2017-12-08T00:49:17.794Z,3.77
2017-12-08T00:51:45.962Z,4.57
2017-12-08T00:54:14.078Z,4.40
2017-12-08T00:56:42.226Z,4.23
2017-12-08T00:59:11.112Z,4.60
2017-12-08T01:01:39.270Z,4.40
2017-12-08T01:04:07.390Z,5.13
2017-12-08T01:06:36.610Z,5.70
2017-12-08T01:09:04.753Z,5.33
2017-12-08T01:11:32.889Z,8.33
2017-12-08T01:14:01.035Z,5.90
2017-12-08T01:16:29.166Z,7.83
2017-12-08T01:18:58.073Z,5.20
2017-12-08T01:21:26.194Z,5.70
2017-12-08T01:23:54.340Z,5.13
2017-12-08T01:26:22.459Z,6.20
2017-12-08T01:28:50.602Z,6.23
2017-12-08T01:31:18.726Z,6.30
2017-12-08T01:33:46.884Z,5.50
2017-12-08T01:36:14.995Z,6.50
2017-12-08T01:38:43.140Z,6.07
2017-12-08T01:41:12.028Z,6.37
2017-12-08T01:43:41.789Z,5.83
2017-12-08T01:46:10.254Z,6.47
2017-12-08T01:48:38.396Z,5.33
2017-12-08T01:51:07.283Z,7.40
2017-12-08T01:53:36.202Z,5.83
2017-12-08T01:56:05.792Z,7.10
2017-12-08T01:58:34.702Z,6.50
2017-12-08T02:01:02.857Z,7.17
2017-12-08T02:03:31.770Z,7.73
2017-12-08T02:05:59.886Z,6.90
2017-12-08T02:08:28.043Z,7.90
2017-12-08T02:10:56.634Z,7.30
2017-12-08T02:13:26.067Z,7.67
2017-12-08T02:15:54.959Z,9.43
2017-12-08T02:18:23.905Z,9.23
2017-12-08T02:20:52.026Z,8.20
2017-12-08T02:23:20.937Z,8.00
2017-12-08T02:25:50.539Z,8.30
2017-12-08T02:28:18.683Z,8.53
2017-12-08T02:30:46.839Z,8.60
2017-12-08T02:33:14.982Z,7.63
2017-12-08T02:35:43.123Z,7.73
2017-12-08T02:38:12.031Z,7.97
2017-12-08T02:40:41.480Z,7.80
2017-12-08T02:43:09.594Z,7.47
2017-12-08T02:45:38.512Z,8.13
2017-12-08T02:48:06.638Z,7.00
2017-12-08T02:50:34.784Z,7.50
2017-12-08T02:53:02.971Z,7.93
2017-12-08T02:55:31.114Z,7.00
2017-12-08T02:57:59.233Z,7.97
2017-12-08T03:00:28.159Z,7.87
2017-12-08T03:02:56.282Z,7.63
2017-12-08T03:05:24.438Z,8.13
2017-12-08T03:07:52.553Z,7.07
2017-12-08T03:10:20.699Z,7.93
2017-12-08T03:12:48.818Z,7.40
2017-12-08T03:15:18.122Z,7.90
2017-12-08T03:17:46.242Z,7.30
2017-12-08T03:20:14.376Z,8.20
2017-12-08T03:22:42.501Z,7.17
2017-12-08T03:25:10.660Z,7.33
2017-12-08T03:27:38.786Z,6.80
2017-12-08T03:30:06.936Z,8.13
2017-12-08T03:32:35.826Z,8.07
2017-12-08T03:35:03.972Z,7.93
2017-12-08T03:37:32.082Z,7.13
2017-12-08T03:40:01.010Z,8.83
2017-12-08T03:42:29.131Z,7.13
2017-12-08T03:44:58.351Z,6.13
2017-12-08T03:47:27.273Z,6.70
2017-12-08T03:49:55.833Z,7.07
2017-12-08T03:52:23.960Z,7.27
2017-12-08T03:54:52.102Z,6.80
2017-12-08T03:57:20.225Z,7.10
2017-12-08T03:59:48.383Z,7.43
2017-12-08T04:02:16.530Z,7.03
2017-12-08T04:04:44.646Z,7.60
2017-12-08T04:07:12.795Z,6.97
2017-12-08T04:09:40.908Z,6.73
2017-12-08T04:12:09.822Z,7.10
2017-12-08T04:14:37.946Z,8.20
2017-12-08T04:17:06.085Z,8.60
2017-12-08T04:19:34.232Z,7.07
2017-12-08T04:22:02.387Z,8.00
2017-12-08T04:24:31.266Z,7.53
2017-12-08T04:26:59.417Z,8.73
2017-12-08T04:29:27.549Z,7.30
2017-12-08T04:31:55.696Z,7.40
2017-12-08T04:34:24.595Z,7.07
2017-12-08T04:36:52.755Z,7.70
2017-12-08T04:39:20.870Z,7.00
2017-12-08T04:41:49.024Z,8.43
2017-12-08T04:44:17.913Z,7.23
2017-12-08T04:46:46.057Z,10.10
2017-12-08T04:49:14.169Z,7.07
2017-12-08T04:51:42.339Z,8.00
2017-12-08T04:54:10.477Z,7.80
2017-12-08T04:56:38.633Z,7.10
2017-12-08T04:59:06.764Z,8.83
2017-12-08T05:01:34.893Z,8.00
2017-12-08T05:04:03.029Z,8.20
2017-12-08T05:06:31.165Z,7.37
2017-12-08T05:09:00.062Z,8.20
2017-12-08T05:11:28.962Z,7.97
2017-12-08T05:13:57.081Z,7.97
2017-12-08T05:16:25.230Z,8.63
2017-12-08T05:18:53.360Z,7.97
2017-12-08T05:21:22.276Z,8.60
2017-12-08T05:23:50.401Z,8.20
2017-12-08T05:26:19.818Z,7.60
2017-12-08T05:28:47.963Z,6.50
2017-12-08T05:31:16.073Z,6.50
2017-12-08T05:33:44.980Z,4.97
2017-12-08T05:36:13.875Z,5.50
2017-12-08T05:38:42.019Z,4.80
2017-12-08T05:41:11.266Z,4.63
2017-12-08T05:43:39.432Z,5.30
2017-12-08T05:46:07.557Z,5.10
2017-12-08T05:48:35.714Z,5.37
2017-12-08T05:51:03.832Z,5.80
2017-12-08T05:53:32.739Z,5.97
2017-12-08T05:56:00.866Z,5.60
2017-12-08T05:58:29.025Z,5.83
2017-12-08T06:00:58.746Z,6.97
2017-12-08T06:03:26.895Z,7.13
2017-12-08T06:05:55.021Z,6.60
2017-12-08T06:08:23.941Z,5.50
2017-12-08T06:10:52.071Z,5.50
2017-12-08T06:13:20.259Z,6.57
2017-12-08T06:15:49.170Z,6.87
2017-12-08T06:18:17.305Z,5.97
2017-12-08T06:20:45.426Z,5.57
2017-12-08T06:23:13.569Z,4.33
2017-12-08T06:25:42.458Z,5.60
2017-12-08T06:28:11.370Z,5.90
2017-12-08T06:30:39.490Z,6.00
2017-12-08T06:33:07.638Z,6.60
2017-12-08T06:35:35.759Z,6.30
2017-12-08T06:38:04.597Z,6.30
2017-12-08T06:40:32.734Z,6.63
2017-12-08T06:43:01.974Z,8.13
2017-12-08T06:45:30.119Z,7.43
2017-12-08T06:47:59.054Z,6.97
2017-12-08T06:50:28.007Z,7.30
2017-12-08T06:52:56.157Z,7.13
2017-12-08T06:55:26.140Z,8.13
2017-12-08T06:57:54.662Z,7.40
2017-12-08T07:00:23.556Z,7.93
2017-12-08T07:02:52.443Z,7.07
2017-12-08T07:05:21.353Z,8.27
2017-12-08T07:07:49.504Z,7.70
2017-12-08T07:10:17.654Z,8.13
2017-12-08T07:12:45.790Z,7.50
2017-12-08T07:15:13.959Z,8.90
2017-12-08T07:17:42.078Z,9.00
2017-12-08T07:20:10.259Z,7.87
2017-12-08T07:22:39.182Z,6.70
2017-12-08T07:25:08.089Z,7.77
2017-12-08T07:27:36.213Z,7.10
2017-12-08T07:30:04.362Z,5.97
2017-12-08T07:32:33.738Z,6.80
2017-12-08T07:35:01.929Z,6.30
2017-12-08T07:37:30.093Z,6.23
2017-12-08T07:39:58.235Z,5.60
2017-12-08T07:42:27.125Z,6.60
2017-12-08T07:44:56.066Z,5.87
2017-12-08T07:47:24.190Z,5.03
2017-12-08T07:49:53.085Z,5.30
2017-12-08T07:52:22.229Z,5.67
2017-12-08T07:54:50.380Z,4.77
2017-12-08T07:57:18.506Z,5.20
2017-12-08T07:59:46.646Z,4.77
2017-12-08T08:02:14.764Z,4.90
2017-12-08T08:04:42.925Z,4.80
2017-12-08T08:07:11.059Z,4.30
2017-12-08T08:09:39.227Z,4.20
2017-12-08T08:12:07.366Z,4.50
2017-12-08T08:14:35.518Z,4.73
2017-12-08T08:17:03.698Z,5.60
2017-12-08T08:19:31.842Z,4.50
2017-12-08T08:21:59.969Z,4.17
2017-12-08T08:24:28.864Z,5.10
2017-12-08T08:26:57.779Z,4.50
2017-12-08T08:29:25.893Z,4.43
2017-12-08T08:31:54.068Z,4.60
2017-12-08T08:34:22.215Z,4.67
2017-12-08T08:36:50.414Z,4.80
2017-12-08T08:39:18.565Z,4.60
2017-12-08T08:41:46.730Z,5.27
2017-12-08T08:44:16.094Z,5.17
2017-12-08T08:46:45.019Z,5.07
2017-12-08T08:49:13.158Z,4.73
2017-12-08T08:51:42.100Z,5.33
2017-12-08T08:54:10.224Z,5.90
2017-12-08T08:56:39.143Z,4.50
2017-12-08T08:59:07.256Z,5.33
2017-12-08T09:01:35.553Z,6.10
2017-12-08T09:04:03.787Z,4.80
2017-12-08T09:06:31.923Z,4.70
2017-12-08T09:09:00.799Z,5.13
2017-12-08T09:11:28.947Z,4.73
2017-12-08T09:13:57.213Z,5.20
2017-12-08T09:16:25.493Z,5.67
2017-12-08T09:18:53.613Z,4.50
2017-12-08T09:21:22.518Z,5.07
2017-12-08T09:23:50.778Z,5.60
2017-12-08T09:26:20.209Z,5.73
2017-12-08T09:28:48.342Z,4.57
2017-12-08T09:31:17.255Z,5.53
2017-12-08T09:33:45.513Z,4.87
2017-12-08T09:36:15.534Z,4.90
2017-12-08T09:38:43.690Z,6.23
2017-12-08T09:41:11.879Z,5.67
2017-12-08T09:43:40.882Z,5.70
2017-12-08T09:46:09.791Z,6.03
2017-12-08T09:48:37.910Z,6.03
2017-12-08T09:51:06.046Z,6.50
2017-12-08T09:53:34.194Z,5.70
2017-12-08T09:56:03.074Z,5.60
2017-12-08T09:58:31.996Z,5.33
2017-12-08T10:01:00.215Z,5.57
2017-12-08T10:03:28.484Z,6.20
2017-12-08T10:05:56.601Z,5.80
2017-12-08T10:08:25.543Z,5.30
2017-12-08T10:10:53.665Z,4.93
2017-12-08T10:13:22.603Z,5.63
2017-12-08T10:15:51.132Z,4.73
2017-12-08T10:18:20.060Z,5.47
2017-12-08T10:20:49.039Z,5.13
2017-12-08T10:23:17.233Z,5.23
2017-12-08T10:25:45.347Z,4.93
2017-12-08T10:28:13.570Z,5.70
2017-12-08T10:30:41.703Z,4.20
2017-12-08T10:33:09.859Z,4.10
2017-12-08T10:35:37.991Z,4.60
2017-12-08T10:38:06.154Z,4.80
2017-12-08T10:40:34.273Z,3.77
2017-12-08T10:43:02.439Z,3.53
2017-12-08T10:45:30.555Z,3.80
2017-12-08T10:47:59.476Z,4.93
2017-12-08T10:50:27.614Z,4.73
2017-12-08T10:52:56.564Z,5.13
2017-12-08T10:55:24.776Z,4.47
2017-12-08T10:57:52.923Z,4.30
2017-12-08T11:00:21.095Z,3.23
2017-12-08T11:02:49.246Z,3.90
2017-12-08T11:05:17.371Z,4.40
2017-12-08T11:07:46.283Z,3.63
2017-12-08T11:10:14.406Z,4.10
2017-12-08T11:12:43.706Z,3.07
2017-12-08T11:15:13.586Z,3.93
2017-12-08T11:17:42.721Z,3.70
2017-12-08T11:20:10.857Z,3.10
2017-12-08T11:22:39.057Z,3.13
2017-12-08T11:25:07.229Z,3.63
2017-12-08T11:27:35.384Z,3.20
2017-12-08T11:30:03.533Z,3.40
2017-12-08T11:32:32.038Z,2.70
2017-12-08T11:35:01.456Z,2.73
2017-12-08T11:37:29.728Z,2.50
2017-12-08T11:39:57.874Z,2.60
2017-12-08T11:42:26.958Z,3.10
2017-12-08T11:44:56.334Z,3.73
2017-12-08T11:47:25.453Z,2.70
2017-12-08T11:49:54.365Z,2.60
2017-12-08T11:52:22.553Z,3.03
2017-12-08T11:54:51.650Z,3.10
2017-12-08T11:57:19.771Z,2.37
2017-12-08T11:59:47.921Z,2.40
2017-12-08T12:02:16.039Z,3.10
2017-12-08T12:04:44.949Z,3.20
2017-12-08T12:07:13.100Z,3.43
2017-12-08T12:09:42.006Z,3.80
2017-12-08T12:12:10.123Z,3.37
2017-12-08T12:14:38.275Z,3.00
2017-12-08T12:17:06.398Z,2.50
2017-12-08T12:19:35.327Z,4.30
2017-12-08T12:22:03.441Z,2.40
2017-12-08T12:24:31.591Z,2.70
2017-12-08T12:26:59.706Z,2.90
2017-12-08T12:29:27.858Z,2.73
2017-12-08T12:31:56.029Z,3.40
2017-12-08T12:34:24.134Z,2.50
2017-12-08T12:36:52.242Z,2.87
2017-12-08T12:39:20.423Z,3.10
2017-12-08T12:41:48.544Z,3.00
2017-12-08T12:44:16.734Z,2.90
2017-12-08T12:46:45.608Z,2.73
2017-12-08T12:49:13.727Z,2.90
2017-12-08T12:51:41.870Z,3.90
2017-12-08T12:54:10.755Z,3.43
2017-12-08T12:56:38.894Z,3.47
2017-12-08T12:59:07.030Z,3.40
2017-12-08T13:01:35.175Z,3.43
2017-12-08T13:04:04.073Z,2.97
2017-12-08T13:06:32.969Z,3.27
2017-12-08T13:09:01.855Z,3.20
2017-12-08T13:11:30.779Z,3.00
2017-12-08T13:13:58.967Z,3.07
2017-12-08T13:16:28.630Z,3.50
2017-12-08T13:18:58.831Z,3.40
2017-12-08T13:21:26.978Z,3.20
2017-12-08T13:23:55.110Z,3.40
2017-12-08T13:26:23.275Z,3.43
2017-12-08T13:28:52.244Z,4.17
2017-12-08T13:31:20.483Z,3.90
2017-12-08T13:33:48.605Z,3.50
2017-12-08T13:36:17.521Z,3.80
2017-12-08T13:38:45.642Z,4.47
2017-12-08T13:41:13.769Z,3.90
2017-12-08T13:43:41.892Z,3.53
2017-12-08T13:46:10.042Z,3.90
2017-12-08T13:48:38.163Z,4.27
2017-12-08T13:51:07.093Z,4.13
2017-12-08T13:53:46.946Z,4.00
2017-12-08T13:56:26.753Z,3.53
2017-12-08T13:58:54.870Z,4.27
2017-12-08T14:01:23.022Z,4.37
2017-12-08T14:03:51.146Z,4.27
2017-12-08T14:06:19.303Z,4.60
2017-12-08T14:08:47.430Z,4.70
2017-12-08T14:11:15.582Z,4.00
2017-12-08T14:13:43.698Z,5.40
2017-12-08T14:16:11.845Z,5.00
2017-12-08T14:18:40.751Z,3.97
2017-12-08T14:21:10.440Z,4.47
2017-12-08T14:23:38.575Z,5.27
2017-12-08T14:26:06.684Z,4.60
2017-12-08T14:28:35.613Z,3.90
2017-12-08T14:31:03.745Z,5.03
2017-12-08T14:33:32.679Z,4.40
2017-12-08T14:36:00.794Z,4.50
2017-12-08T14:38:29.398Z,5.40
2017-12-08T14:40:57.526Z,4.63
2017-12-08T14:43:26.714Z,5.00
2017-12-08T14:45:54.838Z,4.60
2017-12-08T14:48:22.975Z,4.80
2017-12-08T14:50:51.092Z,3.80
2017-12-08T14:53:19.225Z,4.10
2017-12-08T14:55:47.373Z,3.73
2017-12-08T14:58:15.528Z,4.60
2017-12-08T15:00:44.452Z,4.17
2017-12-08T15:03:12.592Z,4.67
2017-12-08T15:05:41.472Z,4.10
2017-12-08T15:08:09.615Z,4.63
2017-12-08T15:10:37.718Z,4.43
2017-12-08T15:13:05.854Z,3.40
2017-12-08T15:15:33.959Z,5.10
2017-12-08T15:18:02.092Z,3.47
2017-12-08T15:20:30.233Z,3.70
2017-12-08T15:22:58.345Z,3.97
2017-12-08T15:25:26.559Z,3.90
2017-12-08T15:27:54.685Z,3.80
2017-12-08T15:30:22.825Z,3.97
2017-12-08T15:32:51.716Z,3.90
2017-12-08T15:35:19.878Z,3.67
2017-12-08T15:37:48.779Z,3.37
2017-12-08T15:40:17.687Z,3.20
2017-12-08T15:42:45.794Z,3.87
2017-12-08T15:45:13.925Z,3.67
2017-12-08T15:47:42.063Z,4.20
2017-12-08T15:50:10.232Z,3.40
2017-12-08T15:52:39.450Z,3.37
2017-12-08T15:55:08.357Z,3.77
2017-12-08T15:57:36.484Z,3.70
2017-12-08T16:00:04.617Z,4.77
2017-12-08T16:02:38.516Z,4.47
2017-12-08T16:05:06.685Z,4.53
2017-12-08T16:07:34.814Z,5.10
2017-12-08T16:10:02.922Z,4.47
2017-12-08T16:12:31.834Z,7.77
2017-12-08T16:14:59.998Z,6.87
2017-12-08T16:17:28.154Z,33.03
2017-12-08T16:19:57.042Z,9.50
2017-12-08T16:22:25.966Z,15.53
2017-12-08T16:24:54.097Z,23.70
2017-12-08T16:27:22.243Z,24.27
2017-12-08T16:29:50.366Z,8.57
2017-12-08T16:32:19.265Z,12.47
2017-12-08T16:34:47.385Z,12.50
2017-12-08T16:37:15.539Z,13.87
2017-12-08T16:39:43.663Z,9.37
2017-12-08T16:42:11.801Z,9.23
2017-12-08T16:44:39.927Z,6.70
2017-12-08T16:47:08.833Z,8.43
2017-12-08T16:49:36.946Z,6.23
2017-12-08T16:52:05.103Z,6.90
2017-12-08T16:54:33.225Z,6.33
2017-12-08T16:57:02.414Z,6.03
2017-12-08T16:59:30.533Z,5.93
2017-12-08T17:01:58.670Z,6.30
2017-12-08T17:04:27.552Z,5.80
2017-12-08T17:06:56.437Z,5.30
2017-12-08T17:09:24.638Z,5.57
2017-12-08T17:11:53.527Z,5.77
2017-12-08T17:14:21.714Z,7.20
2017-12-08T17:16:49.826Z,6.70
2017-12-08T17:19:17.976Z,6.60
2017-12-08T17:21:46.098Z,5.87
2017-12-08T17:24:14.246Z,5.70
2017-12-08T17:26:42.359Z,6.10
2017-12-08T17:29:11.307Z,7.00
2017-12-08T17:31:39.425Z,7.07
2017-12-08T17:34:08.343Z,6.30
2017-12-08T17:36:36.471Z,6.10
2017-12-08T17:39:04.688Z,7.30
2017-12-08T17:41:35.675Z,6.87
2017-12-08T17:44:04.046Z,5.50
2017-12-08T17:46:32.166Z,6.53
2017-12-08T17:49:01.061Z,6.57
2017-12-08T17:51:29.954Z,6.80
2017-12-08T17:53:58.094Z,5.50
2017-12-08T17:56:26.213Z,6.00
2017-12-08T17:58:54.491Z,5.60
2017-12-08T18:01:22.618Z,5.33
2017-12-08T18:03:50.762Z,5.77
2017-12-08T18:06:18.895Z,7.43
2017-12-08T18:08:47.789Z,6.07
2017-12-08T18:11:15.922Z,5.90
2017-12-08T18:13:44.097Z,6.73
2017-12-08T18:16:12.998Z,12.00
2017-12-08T18:18:41.162Z,6.20
2017-12-08T18:21:10.705Z,5.43
2017-12-08T18:23:39.602Z,5.93
2017-12-08T18:26:07.714Z,5.80
2017-12-08T18:28:35.863Z,10.70
2017-12-08T18:31:03.989Z,6.87
2017-12-08T18:33:32.134Z,6.43
2017-12-08T18:36:00.249Z,5.40
2017-12-08T18:38:29.159Z,6.33
2017-12-08T18:40:57.270Z,8.43
2017-12-08T18:43:25.406Z,5.93
2017-12-08T18:45:53.518Z,5.87
2017-12-08T18:48:21.654Z,5.13
2017-12-08T18:50:49.772Z,5.63
2017-12-08T18:53:17.917Z,5.00
2017-12-08T18:55:46.034Z,6.83
2017-12-08T18:58:14.183Z,5.63
2017-12-08T19:00:42.336Z,5.53
2017-12-08T19:03:10.482Z,5.40
2017-12-08T19:05:38.617Z,17.33
2017-12-08T19:08:06.787Z,10.10
2017-12-08T19:10:34.914Z,13.30
2017-12-08T19:13:03.160Z,5.60
2017-12-08T19:15:32.067Z,4.80
2017-12-08T19:18:00.259Z,4.80
2017-12-08T19:20:28.378Z,4.57
2017-12-08T19:22:56.542Z,5.90
2017-12-08T19:25:24.653Z,4.80
2017-12-08T19:27:53.552Z,4.43
2017-12-08T19:30:21.697Z,5.10
2017-12-08T19:32:50.632Z,4.70
2017-12-08T19:35:18.733Z,5.10
2017-12-08T19:37:46.882Z,5.70
2017-12-08T19:40:15.006Z,4.63
2017-12-08T19:42:43.163Z,6.77
2017-12-08T19:45:11.274Z,6.10
2017-12-08T19:47:40.161Z,6.43
2017-12-08T19:50:09.057Z,6.10
2017-12-08T19:52:37.929Z,5.40
2017-12-08T19:55:06.075Z,6.57
2017-12-08T19:57:34.189Z,7.57
2017-12-08T20:00:03.094Z,6.00
2017-12-08T20:02:36.806Z,5.93
2017-12-08T20:05:05.057Z,7.83
2017-12-08T20:07:33.996Z,7.10
2017-12-08T20:10:02.141Z,6.73
2017-12-08T20:12:31.022Z,7.67
2017-12-08T20:14:59.990Z,7.40
2017-12-08T20:17:28.085Z,6.43
2017-12-08T20:19:56.253Z,6.40
2017-12-08T20:22:24.416Z,6.93
2017-12-08T20:24:52.566Z,6.77
2017-12-08T20:27:20.686Z,6.80
2017-12-08T20:29:49.586Z,5.70
2017-12-08T20:32:17.746Z,6.43
2017-12-08T20:34:46.654Z,6.10
2017-12-08T20:37:14.774Z,5.70
2017-12-08T20:39:42.915Z,5.80
2017-12-08T20:42:11.039Z,5.53
2017-12-08T20:44:39.182Z,5.60
2017-12-08T20:47:07.314Z,5.53
2017-12-08T20:49:35.458Z,5.60
2017-12-08T20:52:03.578Z,5.40
2017-12-08T20:54:31.729Z,6.33
2017-12-08T20:57:00.621Z,5.50
2017-12-08T20:59:28.778Z,6.20
2017-12-08T21:01:56.885Z,5.80
2017-12-08T21:04:25.043Z,6.40
2017-12-08T21:06:53.166Z,5.90
2017-12-08T21:09:21.327Z,5.20
2017-12-08T21:11:49.445Z,6.07
2017-12-08T21:14:18.382Z,6.23
2017-12-08T21:16:46.498Z,5.40
2017-12-08T21:19:14.622Z,5.70
2017-12-08T21:21:42.784Z,5.23
2017-12-08T21:24:10.917Z,5.40
2017-12-08T21:26:39.066Z,5.90
2017-12-08T21:29:07.202Z,5.50
2017-12-08T21:31:35.354Z,6.60
2017-12-08T21:34:04.246Z,5.83
2017-12-08T21:36:32.399Z,5.00
2017-12-08T21:39:00.515Z,5.90
2017-12-08T21:41:28.670Z,6.23
2017-12-08T21:43:57.550Z,5.50
2017-12-08T21:46:25.705Z,5.23
2017-12-08T21:48:53.823Z,5.07
2017-12-08T21:51:21.975Z,5.30
2017-12-08T21:53:50.859Z,4.80
2017-12-08T21:56:18.997Z,4.67
2017-12-08T21:58:47.125Z,4.67
2017-12-08T22:01:15.261Z,5.07
2017-12-08T22:03:43.392Z,5.67
2017-12-08T22:06:11.547Z,5.27
2017-12-08T22:08:39.681Z,6.50
2017-12-08T22:11:07.848Z,4.97
2017-12-08T22:13:36.054Z,5.97
2017-12-08T22:16:05.009Z,5.33
2017-12-08T22:18:33.125Z,5.77
2017-12-08T22:21:01.282Z,5.70
2017-12-08T22:23:30.178Z,5.87
2017-12-08T22:25:58.325Z,5.50
2017-12-08T22:28:26.458Z,5.77
2017-12-08T22:30:54.629Z,5.37
2017-12-08T22:33:23.596Z,6.13
2017-12-08T22:35:52.505Z,5.73
2017-12-08T22:38:20.639Z,5.53
2017-12-08T22:40:48.864Z,6.00
2017-12-08T22:43:17.472Z,6.03
2017-12-08T22:45:45.682Z,5.50
2017-12-08T22:48:13.839Z,6.50
2017-12-08T22:50:41.990Z,7.43
2017-12-08T22:53:10.149Z,7.07
2017-12-08T22:55:38.260Z,7.00
2017-12-08T22:58:07.515Z,6.87
2017-12-08T23:00:35.622Z,8.00
2017-12-08T23:03:03.765Z,6.23
2017-12-08T23:05:31.890Z,6.70
2017-12-08T23:08:00.056Z,7.03
2017-12-08T23:10:28.177Z,6.70
2017-12-08T23:12:56.327Z,6.60
2017-12-08T23:15:25.226Z,6.73
2017-12-08T23:17:54.148Z,8.40
2017-12-08T23:20:22.280Z,7.07
2017-12-08T23:22:50.827Z,7.20
2017-12-08T23:25:18.965Z,7.03
2017-12-08T23:27:47.873Z,6.90
2017-12-08T23:30:15.997Z,6.10
2017-12-08T23:32:44.138Z,6.83
2017-12-08T23:35:12.281Z,6.93
2017-12-08T23:37:40.514Z,6.90
2017-12-08T23:40:08.641Z,7.67
2017-12-08T23:42:36.785Z,6.50
2017-12-08T23:45:05.718Z,5.13
2017-12-08T23:47:34.534Z,5.80
2017-12-08T23:50:02.694Z,4.60
2017-12-08T23:52:30.899Z,4.70
2017-12-08T23:54:59.084Z,4.67
2017-12-08T23:57:27.221Z,4.60
2017-12-08T23:59:55.334Z,5.83
